sensor_id;sensor_type;location;lat;lon;timestamp;temperature;humidity
78315;SHT31;68596;52.080;4.662;2023-06-01T00:01:39;16.34;64.31
78315;SHT31;68596;52.080;4.662;2023-06-01T00:04:24;16.35;64.32
78315;SHT31;68596;52.080;4.662;2023-06-01T00:07:09;16.32;64.34
78315;SHT31;68596;52.080;4.662;2023-06-01T00:09:55;16.26;64.61
78315;SHT31;68596;52.080;4.662;2023-06-01T00:12:40;16.26;64.44
78315;SHT31;68596;52.080;4.662;2023-06-01T00:15:24;16.26;64.47
78315;SHT31;68596;52.080;4.662;2023-06-01T00:18:08;16.22;64.46
78315;SHT31;68596;52.080;4.662;2023-06-01T00:20:52;16.22;64.60
78315;SHT31;68596;52.080;4.662;2023-06-01T00:23:36;16.20;64.49
78315;SHT31;68596;52.080;4.662;2023-06-01T00:26:20;16.20;64.56
78315;SHT31;68596;52.080;4.662;2023-06-01T00:29:05;16.17;64.61
78315;SHT31;68596;52.080;4.662;2023-06-01T00:31:49;16.15;64.70
78315;SHT31;68596;52.080;4.662;2023-06-01T00:34:34;16.13;64.63
78315;SHT31;68596;52.080;4.662;2023-06-01T00:37:18;16.13;64.61
78315;SHT31;68596;52.080;4.662;2023-06-01T00:40:02;16.10;64.55
78315;SHT31;68596;52.080;4.662;2023-06-01T00:42:47;16.08;64.77
78315;SHT31;68596;52.080;4.662;2023-06-01T00:45:31;16.08;64.75
78315;SHT31;68596;52.080;4.662;2023-06-01T00:48:16;16.07;64.75
78315;SHT31;68596;52.080;4.662;2023-06-01T00:51:00;16.04;64.86
78315;SHT31;68596;52.080;4.662;2023-06-01T00:53:45;16.03;64.73
78315;SHT31;68596;52.080;4.662;2023-06-01T00:56:29;15.98;64.68
78315;SHT31;68596;52.080;4.662;2023-06-01T00:59:15;15.96;64.67
78315;SHT31;68596;52.080;4.662;2023-06-01T01:01:59;15.93;64.99
78315;SHT31;68596;52.080;4.662;2023-06-01T01:04:44;15.90;65.01
78315;SHT31;68596;52.080;4.662;2023-06-01T01:07:38;15.90;65.17
78315;SHT31;68596;52.080;4.662;2023-06-01T01:17:15;15.84;65.24
78315;SHT31;68596;52.080;4.662;2023-06-01T01:20:34;15.82;65.26
78315;SHT31;68596;52.080;4.662;2023-06-01T01:29:32;15.80;65.10
78315;SHT31;68596;52.080;4.662;2023-06-01T01:32:20;15.82;65.17
78315;SHT31;68596;52.080;4.662;2023-06-01T01:35:07;15.80;65.18
78315;SHT31;68596;52.080;4.662;2023-06-01T01:37:53;15.80;65.27
78315;SHT31;68596;52.080;4.662;2023-06-01T01:40:38;15.80;65.40
78315;SHT31;68596;52.080;4.662;2023-06-01T01:43:22;15.79;65.32
78315;SHT31;68596;52.080;4.662;2023-06-01T01:46:25;15.77;65.18
78315;SHT31;68596;52.080;4.662;2023-06-01T01:49:34;15.77;65.33
78315;SHT31;68596;52.080;4.662;2023-06-01T01:52:41;15.73;65.20
78315;SHT31;68596;52.080;4.662;2023-06-01T01:55:26;15.73;65.16
78315;SHT31;68596;52.080;4.662;2023-06-01T01:58:10;15.71;65.22
78315;SHT31;68596;52.080;4.662;2023-06-01T02:00:56;15.70;65.32
78315;SHT31;68596;52.080;4.662;2023-06-01T02:03:41;15.69;65.51
78315;SHT31;68596;52.080;4.662;2023-06-01T02:06:25;15.70;65.25
78315;SHT31;68596;52.080;4.662;2023-06-01T02:09:09;15.69;65.20
78315;SHT31;68596;52.080;4.662;2023-06-01T02:11:53;15.66;65.23
78315;SHT31;68596;52.080;4.662;2023-06-01T02:14:37;15.67;65.32
78315;SHT31;68596;52.080;4.662;2023-06-01T02:17:21;15.66;65.22
78315;SHT31;68596;52.080;4.662;2023-06-01T02:20:05;15.64;65.21
78315;SHT31;68596;52.080;4.662;2023-06-01T02:22:49;15.64;65.25
78315;SHT31;68596;52.080;4.662;2023-06-01T02:25:33;15.66;65.28
78315;SHT31;68596;52.080;4.662;2023-06-01T02:28:17;15.66;65.39
78315;SHT31;68596;52.080;4.662;2023-06-01T02:31:01;15.64;65.21
78315;SHT31;68596;52.080;4.662;2023-06-01T02:33:45;15.64;65.13
78315;SHT31;68596;52.080;4.662;2023-06-01T02:36:29;15.63;65.22
78315;SHT31;68596;52.080;4.662;2023-06-01T02:39:15;15.63;65.35
78315;SHT31;68596;52.080;4.662;2023-06-01T02:42:00;15.62;65.45
78315;SHT31;68596;52.080;4.662;2023-06-01T02:44:44;15.62;65.21
78315;SHT31;68596;52.080;4.662;2023-06-01T02:47:28;15.64;65.52
78315;SHT31;68596;52.080;4.662;2023-06-01T02:50:13;15.60;65.36
78315;SHT31;68596;52.080;4.662;2023-06-01T02:52:57;15.62;65.65
78315;SHT31;68596;52.080;4.662;2023-06-01T02:55:41;15.64;65.59
78315;SHT31;68596;52.080;4.662;2023-06-01T02:58:25;15.60;65.40
78315;SHT31;68596;52.080;4.662;2023-06-01T03:01:09;15.57;65.34
78315;SHT31;68596;52.080;4.662;2023-06-01T03:03:55;15.60;65.43
78315;SHT31;68596;52.080;4.662;2023-06-01T03:06:40;15.59;65.50
78315;SHT31;68596;52.080;4.662;2023-06-01T03:09:24;15.54;65.52
78315;SHT31;68596;52.080;4.662;2023-06-01T03:12:09;15.50;65.48
78315;SHT31;68596;52.080;4.662;2023-06-01T03:14:53;15.50;65.59
78315;SHT31;68596;52.080;4.662;2023-06-01T03:17:37;15.50;65.55
78315;SHT31;68596;52.080;4.662;2023-06-01T03:20:21;15.47;65.76
78315;SHT31;68596;52.080;4.662;2023-06-01T03:23:06;15.46;65.71
78315;SHT31;68596;52.080;4.662;2023-06-01T03:25:50;15.46;65.64
78315;SHT31;68596;52.080;4.662;2023-06-01T03:28:35;15.47;65.67
78315;SHT31;68596;52.080;4.662;2023-06-01T03:31:19;15.44;65.76
78315;SHT31;68596;52.080;4.662;2023-06-01T03:34:03;15.44;65.75
78315;SHT31;68596;52.080;4.662;2023-06-01T03:36:47;15.44;65.84
78315;SHT31;68596;52.080;4.662;2023-06-01T03:39:32;15.42;65.71
78315;SHT31;68596;52.080;4.662;2023-06-01T03:42:17;15.42;65.69
78315;SHT31;68596;52.080;4.662;2023-06-01T03:45:04;15.43;65.78
78315;SHT31;68596;52.080;4.662;2023-06-01T03:47:49;15.42;65.68
78315;SHT31;68596;52.080;4.662;2023-06-01T03:50:33;15.42;65.63
78315;SHT31;68596;52.080;4.662;2023-06-01T03:53:17;15.40;65.72
78315;SHT31;68596;52.080;4.662;2023-06-01T03:56:01;15.40;65.72
78315;SHT31;68596;52.080;4.662;2023-06-01T03:58:46;15.40;65.47
78315;SHT31;68596;52.080;4.662;2023-06-01T04:01:30;15.39;65.50
78315;SHT31;68596;52.080;4.662;2023-06-01T04:04:17;15.38;65.78
78315;SHT31;68596;52.080;4.662;2023-06-01T04:07:02;15.36;65.53
78315;SHT31;68596;52.080;4.662;2023-06-01T04:09:48;15.38;65.52
78315;SHT31;68596;52.080;4.662;2023-06-01T04:12:32;15.38;65.64
78315;SHT31;68596;52.080;4.662;2023-06-01T04:15:19;15.35;65.41
78315;SHT31;68596;52.080;4.662;2023-06-01T04:18:03;15.30;65.73
78315;SHT31;68596;52.080;4.662;2023-06-01T04:20:47;15.30;65.55
78315;SHT31;68596;52.080;4.662;2023-06-01T04:23:32;15.28;65.85
78315;SHT31;68596;52.080;4.662;2023-06-01T04:26:16;15.29;65.84
78315;SHT31;68596;52.080;4.662;2023-06-01T04:29:02;15.28;65.70
78315;SHT31;68596;52.080;4.662;2023-06-01T04:31:47;15.28;65.73
78315;SHT31;68596;52.080;4.662;2023-06-01T04:34:31;15.29;65.75
78315;SHT31;68596;52.080;4.662;2023-06-01T04:37:17;15.30;65.58
78315;SHT31;68596;52.080;4.662;2023-06-01T04:40:05;15.28;65.58
78315;SHT31;68596;52.080;4.662;2023-06-01T04:42:53;15.30;65.64
78315;SHT31;68596;52.080;4.662;2023-06-01T04:45:40;15.32;65.69
78315;SHT31;68596;52.080;4.662;2023-06-01T04:48:25;15.29;65.62
78315;SHT31;68596;52.080;4.662;2023-06-01T04:51:09;15.32;65.58
78315;SHT31;68596;52.080;4.662;2023-06-01T04:53:53;15.30;65.61
78315;SHT31;68596;52.080;4.662;2023-06-01T04:56:37;15.29;65.73
78315;SHT31;68596;52.080;4.662;2023-06-01T04:59:21;15.26;65.45
78315;SHT31;68596;52.080;4.662;2023-06-01T05:02:05;15.28;65.69
78315;SHT31;68596;52.080;4.662;2023-06-01T05:04:49;15.29;65.82
78315;SHT31;68596;52.080;4.662;2023-06-01T05:07:34;15.29;65.70
78315;SHT31;68596;52.080;4.662;2023-06-01T05:10:20;15.28;65.66
78315;SHT31;68596;52.080;4.662;2023-06-01T05:13:04;15.29;65.36
78315;SHT31;68596;52.080;4.662;2023-06-01T05:15:48;15.29;65.59
78315;SHT31;68596;52.080;4.662;2023-06-01T05:18:33;15.28;65.59
78315;SHT31;68596;52.080;4.662;2023-06-01T05:21:17;15.29;65.38
78315;SHT31;68596;52.080;4.662;2023-06-01T05:24:01;15.29;65.21
78315;SHT31;68596;52.080;4.662;2023-06-01T05:26:46;15.28;65.40
78315;SHT31;68596;52.080;4.662;2023-06-01T05:29:30;15.29;65.50
78315;SHT31;68596;52.080;4.662;2023-06-01T05:32:15;15.30;65.26
78315;SHT31;68596;52.080;4.662;2023-06-01T05:35:03;15.30;65.17
78315;SHT31;68596;52.080;4.662;2023-06-01T05:37:48;15.29;65.15
78315;SHT31;68596;52.080;4.662;2023-06-01T05:40:32;15.30;65.17
78315;SHT31;68596;52.080;4.662;2023-06-01T05:43:17;15.28;65.20
78315;SHT31;68596;52.080;4.662;2023-06-01T05:46:01;15.30;65.31
78315;SHT31;68596;52.080;4.662;2023-06-01T05:48:49;15.30;65.36
78315;SHT31;68596;52.080;4.662;2023-06-01T05:51:34;15.33;65.26
78315;SHT31;68596;52.080;4.662;2023-06-01T05:54:22;15.35;65.08
78315;SHT31;68596;52.080;4.662;2023-06-01T05:57:06;15.36;64.93
78315;SHT31;68596;52.080;4.662;2023-06-01T05:59:50;15.35;64.95
78315;SHT31;68596;52.080;4.662;2023-06-01T06:02:36;15.33;65.06
78315;SHT31;68596;52.080;4.662;2023-06-01T06:05:20;15.33;65.10
78315;SHT31;68596;52.080;4.662;2023-06-01T06:08:04;15.35;65.40
78315;SHT31;68596;52.080;4.662;2023-06-01T06:10:49;15.33;65.45
78315;SHT31;68596;52.080;4.662;2023-06-01T06:13:34;15.36;65.37
78315;SHT31;68596;52.080;4.662;2023-06-01T06:16:18;15.38;65.12
78315;SHT31;68596;52.080;4.662;2023-06-01T06:19:02;15.36;64.98
78315;SHT31;68596;52.080;4.662;2023-06-01T06:21:46;15.39;65.00
78315;SHT31;68596;52.080;4.662;2023-06-01T06:24:31;15.42;64.91
78315;SHT31;68596;52.080;4.662;2023-06-01T06:27:15;15.40;64.87
78315;SHT31;68596;52.080;4.662;2023-06-01T06:29:59;15.43;64.84
78315;SHT31;68596;52.080;4.662;2023-06-01T06:32:43;15.44;64.85
78315;SHT31;68596;52.080;4.662;2023-06-01T06:35:27;15.46;65.10
78315;SHT31;68596;52.080;4.662;2023-06-01T06:38:12;15.47;64.95
78315;SHT31;68596;52.080;4.662;2023-06-01T06:40:57;15.46;64.82
78315;SHT31;68596;52.080;4.662;2023-06-01T06:43:41;15.52;64.91
78315;SHT31;68596;52.080;4.662;2023-06-01T06:46:25;15.50;64.92
78315;SHT31;68596;52.080;4.662;2023-06-01T06:49:09;15.50;65.04
78315;SHT31;68596;52.080;4.662;2023-06-01T06:51:53;15.54;64.98
78315;SHT31;68596;52.080;4.662;2023-06-01T06:54:41;15.56;65.16
78315;SHT31;68596;52.080;4.662;2023-06-01T06:57:25;15.59;65.03
78315;SHT31;68596;52.080;4.662;2023-06-01T07:00:09;15.62;64.82
78315;SHT31;68596;52.080;4.662;2023-06-01T07:02:58;15.63;65.28
78315;SHT31;68596;52.080;4.662;2023-06-01T07:05:43;15.62;65.05
78315;SHT31;68596;52.080;4.662;2023-06-01T07:08:29;15.66;65.33
78315;SHT31;68596;52.080;4.662;2023-06-01T07:11:19;15.70;65.34
78315;SHT31;68596;52.080;4.662;2023-06-01T07:14:03;15.73;65.44
78315;SHT31;68596;52.080;4.662;2023-06-01T07:16:47;15.76;65.31
78315;SHT31;68596;52.080;4.662;2023-06-01T07:19:32;15.79;65.37
78315;SHT31;68596;52.080;4.662;2023-06-01T07:22:19;15.80;65.13
78315;SHT31;68596;52.080;4.662;2023-06-01T07:25:05;15.86;64.92
78315;SHT31;68596;52.080;4.662;2023-06-01T07:27:50;15.87;64.77
78315;SHT31;68596;52.080;4.662;2023-06-01T07:30:35;15.90;64.72
78315;SHT31;68596;52.080;4.662;2023-06-01T07:33:19;15.87;64.63
78315;SHT31;68596;52.080;4.662;2023-06-01T07:36:05;15.91;64.83
78315;SHT31;68596;52.080;4.662;2023-06-01T07:38:50;15.97;64.69
78315;SHT31;68596;52.080;4.662;2023-06-01T07:41:34;15.94;64.72
78315;SHT31;68596;52.080;4.662;2023-06-01T07:44:19;15.97;64.57
78315;SHT31;68596;52.080;4.662;2023-06-01T07:47:04;16.03;64.75
78315;SHT31;68596;52.080;4.662;2023-06-01T07:49:49;16.03;64.53
78315;SHT31;68596;52.080;4.662;2023-06-01T07:52:33;16.05;64.60
78315;SHT31;68596;52.080;4.662;2023-06-01T07:55:17;16.08;64.54
78315;SHT31;68596;52.080;4.662;2023-06-01T07:58:01;16.10;64.37
78315;SHT31;68596;52.080;4.662;2023-06-01T08:00:45;16.11;64.48
78315;SHT31;68596;52.080;4.662;2023-06-01T08:03:29;16.10;64.40
78315;SHT31;68596;52.080;4.662;2023-06-01T08:06:17;16.13;64.28
78315;SHT31;68596;52.080;4.662;2023-06-01T08:09:02;16.17;64.42
78315;SHT31;68596;52.080;4.662;2023-06-01T08:11:46;16.18;64.57
78315;SHT31;68596;52.080;4.662;2023-06-01T08:14:31;16.25;64.63
78315;SHT31;68596;52.080;4.662;2023-06-01T08:17:19;16.29;64.46
78315;SHT31;68596;52.080;4.662;2023-06-01T08:20:04;16.31;64.51
78315;SHT31;68596;52.080;4.662;2023-06-01T08:22:54;16.35;64.14
78315;SHT31;68596;52.080;4.662;2023-06-01T08:25:39;16.41;63.84
78315;SHT31;68596;52.080;4.662;2023-06-01T08:28:24;16.44;63.59
78315;SHT31;68596;52.080;4.662;2023-06-01T08:31:08;16.47;63.77
78315;SHT31;68596;52.080;4.662;2023-06-01T08:33:52;16.51;63.83
78315;SHT31;68596;52.080;4.662;2023-06-01T08:36:37;16.52;63.84
78315;SHT31;68596;52.080;4.662;2023-06-01T08:39:22;16.56;63.66
78315;SHT31;68596;52.080;4.662;2023-06-01T08:45:13;16.69;64.06
78315;SHT31;68596;52.080;4.662;2023-06-01T08:47:58;16.72;63.55
78315;SHT31;68596;52.080;4.662;2023-06-01T08:50:44;16.78;63.52
78315;SHT31;68596;52.080;4.662;2023-06-01T08:53:28;16.86;63.40
78315;SHT31;68596;52.080;4.662;2023-06-01T08:56:13;16.88;63.15
78315;SHT31;68596;52.080;4.662;2023-06-01T08:58:59;16.90;63.14
78315;SHT31;68596;52.080;4.662;2023-06-01T09:01:45;16.96;62.89
78315;SHT31;68596;52.080;4.662;2023-06-01T09:04:32;17.02;63.17
78315;SHT31;68596;52.080;4.662;2023-06-01T09:07:18;17.10;63.24
78315;SHT31;68596;52.080;4.662;2023-06-01T09:10:02;17.16;63.00
78315;SHT31;68596;52.080;4.662;2023-06-01T09:12:54;17.22;62.23
78315;SHT31;68596;52.080;4.662;2023-06-01T09:15:51;17.23;62.39
78315;SHT31;68596;52.080;4.662;2023-06-01T09:18:51;17.30;62.74
78315;SHT31;68596;52.080;4.662;2023-06-01T09:21:36;17.36;62.74
78315;SHT31;68596;52.080;4.662;2023-06-01T09:24:20;17.39;62.37
78315;SHT31;68596;52.080;4.662;2023-06-01T09:27:07;17.44;62.91
78315;SHT31;68596;52.080;4.662;2023-06-01T09:29:58;17.53;62.78
78315;SHT31;68596;52.080;4.662;2023-06-01T09:32:45;17.64;62.13
78315;SHT31;68596;52.080;4.662;2023-06-01T09:35:43;17.66;62.43
78315;SHT31;68596;52.080;4.662;2023-06-01T09:38:27;17.70;62.24
78315;SHT31;68596;52.080;4.662;2023-06-01T09:41:11;17.81;61.36
78315;SHT31;68596;52.080;4.662;2023-06-01T09:43:55;17.84;61.86
78315;SHT31;68596;52.080;4.662;2023-06-01T09:46:49;17.84;62.01
78315;SHT31;68596;52.080;4.662;2023-06-01T09:49:39;17.90;61.84
78315;SHT31;68596;52.080;4.662;2023-06-01T09:52:24;17.95;61.77
78315;SHT31;68596;52.080;4.662;2023-06-01T09:55:08;18.05;59.79
78315;SHT31;68596;52.080;4.662;2023-06-01T09:58:20;18.09;60.92
78315;SHT31;68596;52.080;4.662;2023-06-01T10:01:06;18.09;61.53
78315;SHT31;68596;52.080;4.662;2023-06-01T10:03:56;18.15;61.78
78315;SHT31;68596;52.080;4.662;2023-06-01T10:06:43;18.21;61.48
78315;SHT31;68596;52.080;4.662;2023-06-01T10:09:28;18.28;61.83
78315;SHT31;68596;52.080;4.662;2023-06-01T10:12:13;18.36;61.63
78315;SHT31;68596;52.080;4.662;2023-06-01T10:14:58;18.46;61.32
78315;SHT31;68596;52.080;4.662;2023-06-01T10:17:44;18.52;60.61
78315;SHT31;68596;52.080;4.662;2023-06-01T10:20:31;18.56;60.46
78315;SHT31;68596;52.080;4.662;2023-06-01T10:23:16;18.60;60.18
78315;SHT31;68596;52.080;4.662;2023-06-01T10:26:09;18.66;60.00
78315;SHT31;68596;52.080;4.662;2023-06-01T10:28:55;18.72;60.13
78315;SHT31;68596;52.080;4.662;2023-06-01T10:31:42;18.80;60.35
78315;SHT31;68596;52.080;4.662;2023-06-01T10:34:41;18.92;59.81
78315;SHT31;68596;52.080;4.662;2023-06-01T10:37:26;19.00;60.19
78315;SHT31;68596;52.080;4.662;2023-06-01T10:43:04;19.18;60.65
78315;SHT31;68596;52.080;4.662;2023-06-01T10:45:50;19.26;59.39
78315;SHT31;68596;52.080;4.662;2023-06-01T10:48:52;19.34;59.55
78315;SHT31;68596;52.080;4.662;2023-06-01T10:51:37;19.37;59.65
78315;SHT31;68596;52.080;4.662;2023-06-01T10:54:31;19.44;59.71
78315;SHT31;68596;52.080;4.662;2023-06-01T10:57:25;19.50;59.58
78315;SHT31;68596;52.080;4.662;2023-06-01T11:05:46;19.65;58.66
78315;SHT31;68596;52.080;4.662;2023-06-01T11:11:15;19.58;59.02
78315;SHT31;68596;52.080;4.662;2023-06-01T11:14:11;19.62;59.52
78315;SHT31;68596;52.080;4.662;2023-06-01T11:17:25;19.74;59.02
78315;SHT31;68596;52.080;4.662;2023-06-01T11:20:10;19.79;58.71
78315;SHT31;68596;52.080;4.662;2023-06-01T11:22:56;19.86;58.38
78315;SHT31;68596;52.080;4.662;2023-06-01T11:25:42;19.89;58.31
78315;SHT31;68596;52.080;4.662;2023-06-01T11:28:26;19.98;58.46
78315;SHT31;68596;52.080;4.662;2023-06-01T11:31:15;20.02;58.05
78315;SHT31;68596;52.080;4.662;2023-06-01T11:34:00;20.05;57.26
78315;SHT31;68596;52.080;4.662;2023-06-01T11:36:47;20.06;57.67
78315;SHT31;68596;52.080;4.662;2023-06-01T11:39:32;20.09;57.61
78315;SHT31;68596;52.080;4.662;2023-06-01T11:42:18;20.09;57.85
78315;SHT31;68596;52.080;4.662;2023-06-01T11:45:05;20.09;57.52
78315;SHT31;68596;52.080;4.662;2023-06-01T11:47:50;20.09;57.09
78315;SHT31;68596;52.080;4.662;2023-06-01T11:50:35;20.10;57.05
78315;SHT31;68596;52.080;4.662;2023-06-01T11:53:20;20.06;57.22
78315;SHT31;68596;52.080;4.662;2023-06-01T11:56:05;20.09;57.61
78315;SHT31;68596;52.080;4.662;2023-06-01T11:58:56;20.10;56.97
78315;SHT31;68596;52.080;4.662;2023-06-01T12:01:45;20.10;57.05
78315;SHT31;68596;52.080;4.662;2023-06-01T12:04:29;20.13;57.32
78315;SHT31;68596;52.080;4.662;2023-06-01T12:07:14;20.15;56.96
78315;SHT31;68596;52.080;4.662;2023-06-01T12:09:59;20.19;57.09
78315;SHT31;68596;52.080;4.662;2023-06-01T12:12:45;20.20;56.66
78315;SHT31;68596;52.080;4.662;2023-06-01T12:15:30;20.22;56.83
78315;SHT31;68596;52.080;4.662;2023-06-01T12:18:28;20.23;56.67
78315;SHT31;68596;52.080;4.662;2023-06-01T12:21:14;20.23;56.30
78315;SHT31;68596;52.080;4.662;2023-06-01T12:24:00;20.26;56.67
78315;SHT31;68596;52.080;4.662;2023-06-01T12:26:45;20.23;56.29
78315;SHT31;68596;52.080;4.662;2023-06-01T12:29:40;20.29;56.57
78315;SHT31;68596;52.080;4.662;2023-06-01T12:32:37;20.25;56.58
78315;SHT31;68596;52.080;4.662;2023-06-01T12:35:22;20.23;56.63
78315;SHT31;68596;52.080;4.662;2023-06-01T12:38:10;20.22;56.95
78315;SHT31;68596;52.080;4.662;2023-06-01T12:41:08;20.25;55.82
78315;SHT31;68596;52.080;4.662;2023-06-01T12:43:52;20.28;56.61
78315;SHT31;68596;52.080;4.662;2023-06-01T12:46:37;20.22;56.59
78315;SHT31;68596;52.080;4.662;2023-06-01T12:49:21;20.16;56.75
78315;SHT31;68596;52.080;4.662;2023-06-01T12:52:05;20.06;57.08
78315;SHT31;68596;52.080;4.662;2023-06-01T12:54:50;20.08;57.35
78315;SHT31;68596;52.080;4.662;2023-06-01T12:57:36;20.05;57.40
78315;SHT31;68596;52.080;4.662;2023-06-01T13:00:23;20.10;57.70
78315;SHT31;68596;52.080;4.662;2023-06-01T13:03:07;20.09;57.62
78315;SHT31;68596;52.080;4.662;2023-06-01T13:05:52;20.10;56.82
78315;SHT31;68596;52.080;4.662;2023-06-01T13:08:36;20.08;57.63
78315;SHT31;68596;52.080;4.662;2023-06-01T13:11:21;20.02;57.72
78315;SHT31;68596;52.080;4.662;2023-06-01T13:14:08;20.02;57.94
78315;SHT31;68596;52.080;4.662;2023-06-01T13:16:53;19.99;57.77
78315;SHT31;68596;52.080;4.662;2023-06-01T13:19:37;19.99;57.64
78315;SHT31;68596;52.080;4.662;2023-06-01T13:22:21;19.89;57.64
78315;SHT31;68596;52.080;4.662;2023-06-01T13:25:05;19.83;57.72
78315;SHT31;68596;52.080;4.662;2023-06-01T13:27:50;19.77;58.02
78315;SHT31;68596;52.080;4.662;2023-06-01T13:30:35;19.71;58.22
78315;SHT31;68596;52.080;4.662;2023-06-01T13:33:20;19.67;58.48
78315;SHT31;68596;52.080;4.662;2023-06-01T13:36:04;19.67;58.44
78315;SHT31;68596;52.080;4.662;2023-06-01T13:38:51;19.62;58.81
78315;SHT31;68596;52.080;4.662;2023-06-01T13:41:35;19.61;59.05
78315;SHT31;68596;52.080;4.662;2023-06-01T13:44:20;19.59;58.94
78315;SHT31;68596;52.080;4.662;2023-06-01T13:47:05;19.54;58.73
78315;SHT31;68596;52.080;4.662;2023-06-01T13:49:51;19.50;58.91
78315;SHT31;68596;52.080;4.662;2023-06-01T13:52:36;19.50;59.35
78315;SHT31;68596;52.080;4.662;2023-06-01T13:55:21;19.45;59.08
78315;SHT31;68596;52.080;4.662;2023-06-01T13:58:06;19.43;59.13
78315;SHT31;68596;52.080;4.662;2023-06-01T14:00:50;19.39;59.22
78315;SHT31;68596;52.080;4.662;2023-06-01T14:03:35;19.32;59.40
78315;SHT31;68596;52.080;4.662;2023-06-01T14:06:20;19.31;59.23
78315;SHT31;68596;52.080;4.662;2023-06-01T14:09:04;19.30;59.86
78315;SHT31;68596;52.080;4.662;2023-06-01T14:11:48;19.26;59.50
78315;SHT31;68596;52.080;4.662;2023-06-01T14:14:32;19.13;59.61
78315;SHT31;68596;52.080;4.662;2023-06-01T14:17:16;19.07;60.35
78315;SHT31;68596;52.080;4.662;2023-06-01T14:20:00;19.00;60.32
78315;SHT31;68596;52.080;4.662;2023-06-01T14:22:45;18.97;60.64
78315;SHT31;68596;52.080;4.662;2023-06-01T14:25:29;18.93;60.67
78315;SHT31;68596;52.080;4.662;2023-06-01T14:28:13;18.90;60.50
78315;SHT31;68596;52.080;4.662;2023-06-01T14:30:57;18.84;60.89
78315;SHT31;68596;52.080;4.662;2023-06-01T14:33:41;18.82;61.01
78315;SHT31;68596;52.080;4.662;2023-06-01T14:36:26;18.83;61.08
78315;SHT31;68596;52.080;4.662;2023-06-01T14:39:10;18.83;60.83
78315;SHT31;68596;52.080;4.662;2023-06-01T14:41:54;18.83;61.08
78315;SHT31;68596;52.080;4.662;2023-06-01T14:44:39;18.82;59.84
78315;SHT31;68596;52.080;4.662;2023-06-01T14:47:23;18.69;60.62
78315;SHT31;68596;52.080;4.662;2023-06-01T14:50:07;18.62;60.52
78315;SHT31;68596;52.080;4.662;2023-06-01T14:52:51;18.52;61.17
78315;SHT31;68596;52.080;4.662;2023-06-01T14:55:42;18.51;60.90
78315;SHT31;68596;52.080;4.662;2023-06-01T14:58:26;18.45;61.00
78315;SHT31;68596;52.080;4.662;2023-06-01T15:01:10;18.45;60.97
78315;SHT31;68596;52.080;4.662;2023-06-01T15:03:54;18.42;61.45
78315;SHT31;68596;52.080;4.662;2023-06-01T15:06:38;18.43;61.45
78315;SHT31;68596;52.080;4.662;2023-06-01T15:09:22;18.45;61.20
78315;SHT31;68596;52.080;4.662;2023-06-01T15:12:07;18.45;60.65
78315;SHT31;68596;52.080;4.662;2023-06-01T15:14:52;18.39;60.96
78315;SHT31;68596;52.080;4.662;2023-06-01T15:17:36;18.39;60.24
78315;SHT31;68596;52.080;4.662;2023-06-01T15:20:20;18.35;60.84
78315;SHT31;68596;52.080;4.662;2023-06-01T15:23:05;18.38;60.64
78315;SHT31;68596;52.080;4.662;2023-06-01T15:25:53;18.39;60.69
78315;SHT31;68596;52.080;4.662;2023-06-01T15:28:37;18.42;60.61
78315;SHT31;68596;52.080;4.662;2023-06-01T15:31:21;18.43;60.53
78315;SHT31;68596;52.080;4.662;2023-06-01T15:34:06;18.43;60.71
78315;SHT31;68596;52.080;4.662;2023-06-01T15:36:50;18.48;60.72
78315;SHT31;68596;52.080;4.662;2023-06-01T15:39:35;18.48;60.54
78315;SHT31;68596;52.080;4.662;2023-06-01T15:42:20;18.48;60.38
78315;SHT31;68596;52.080;4.662;2023-06-01T15:45:06;18.48;59.96
78315;SHT31;68596;52.080;4.662;2023-06-01T15:47:51;18.46;59.97
78315;SHT31;68596;52.080;4.662;2023-06-01T15:50:36;18.48;59.70
78315;SHT31;68596;52.080;4.662;2023-06-01T15:53:21;18.48;59.55
78315;SHT31;68596;52.080;4.662;2023-06-01T15:56:05;18.45;59.61
78315;SHT31;68596;52.080;4.662;2023-06-01T15:58:50;18.43;59.63
78315;SHT31;68596;52.080;4.662;2023-06-01T16:01:34;18.39;59.76
78315;SHT31;68596;52.080;4.662;2023-06-01T16:04:19;18.42;59.54
78315;SHT31;68596;52.080;4.662;2023-06-01T16:07:04;18.43;59.70
78315;SHT31;68596;52.080;4.662;2023-06-01T16:09:48;18.39;59.77
78315;SHT31;68596;52.080;4.662;2023-06-01T16:12:32;18.36;59.84
78315;SHT31;68596;52.080;4.662;2023-06-01T16:15:16;18.33;59.37
78315;SHT31;68596;52.080;4.662;2023-06-01T16:18:00;18.31;59.53
78315;SHT31;68596;52.080;4.662;2023-06-01T16:20:44;18.26;59.95
78315;SHT31;68596;52.080;4.662;2023-06-01T16:23:29;18.25;60.00
78315;SHT31;68596;52.080;4.662;2023-06-01T16:26:13;18.28;59.81
78315;SHT31;68596;52.080;4.662;2023-06-01T16:28:57;18.25;60.22
78315;SHT31;68596;52.080;4.662;2023-06-01T16:31:41;18.22;59.88
78315;SHT31;68596;52.080;4.662;2023-06-01T16:34:25;18.21;59.71
78315;SHT31;68596;52.080;4.662;2023-06-01T16:37:09;18.18;59.53
78315;SHT31;68596;52.080;4.662;2023-06-01T16:39:53;18.21;59.33
78315;SHT31;68596;52.080;4.662;2023-06-01T16:42:38;18.16;59.91
78315;SHT31;68596;52.080;4.662;2023-06-01T16:45:22;18.15;60.01
78315;SHT31;68596;52.080;4.662;2023-06-01T16:48:06;18.15;60.18
78315;SHT31;68596;52.080;4.662;2023-06-01T16:50:50;18.12;60.18
78315;SHT31;68596;52.080;4.662;2023-06-01T16:53:34;18.13;59.83
78315;SHT31;68596;52.080;4.662;2023-06-01T16:56:18;18.12;60.22
78315;SHT31;68596;52.080;4.662;2023-06-01T16:59:03;18.11;59.76
78315;SHT31;68596;52.080;4.662;2023-06-01T17:01:47;18.11;59.82
78315;SHT31;68596;52.080;4.662;2023-06-01T17:04:31;18.08;58.14
78315;SHT31;68596;52.080;4.662;2023-06-01T17:07:15;18.01;59.48
78315;SHT31;68596;52.080;4.662;2023-06-01T17:10:00;17.98;59.33
78315;SHT31;68596;52.080;4.662;2023-06-01T17:12:44;17.94;59.72
78315;SHT31;68596;52.080;4.662;2023-06-01T17:15:28;17.88;59.75
78315;SHT31;68596;52.080;4.662;2023-06-01T17:18:12;17.88;59.78
78315;SHT31;68596;52.080;4.662;2023-06-01T17:20:56;17.87;59.62
78315;SHT31;68596;52.080;4.662;2023-06-01T17:23:40;17.88;59.91
78315;SHT31;68596;52.080;4.662;2023-06-01T17:26:24;17.87;59.87
78315;SHT31;68596;52.080;4.662;2023-06-01T17:29:09;17.84;59.15
78315;SHT31;68596;52.080;4.662;2023-06-01T17:31:55;17.82;59.37
78315;SHT31;68596;52.080;4.662;2023-06-01T17:34:39;17.75;58.40
78315;SHT31;68596;52.080;4.662;2023-06-01T17:37:24;17.64;59.95
78315;SHT31;68596;52.080;4.662;2023-06-01T17:40:10;17.54;59.38
78315;SHT31;68596;52.080;4.662;2023-06-01T17:42:54;17.49;60.18
78315;SHT31;68596;52.080;4.662;2023-06-01T17:45:38;17.43;60.13
78315;SHT31;68596;52.080;4.662;2023-06-01T17:48:22;17.43;60.13
78315;SHT31;68596;52.080;4.662;2023-06-01T17:51:07;17.49;60.25
78315;SHT31;68596;52.080;4.662;2023-06-01T17:53:51;17.47;60.17